Time;durP1;ratioP1;P1;durP2;ratioP2;P2;SDS_P1;SDS_P2;PMS_P1;PMS_P2;Temp;Humidity;BMP_temperature;BMP_pressure;BME280_temperature;BME280_humidity;BME280_pressure;Samples;Min_cycle;Max_cycle;Signal;HPM_P1;HPM_P2
2021/10/24 00:02:21;;;;;;;1.67;1.58;;;;;;;;;;5052877;27;20233;-82
2021/10/24 00:04:49;;;;;;;1.88;1.77;;;;;;;;;;5053317;28;20182;-82
2021/10/24 00:07:16;;;;;;;2.33;1.85;;;;;;;;;;5053486;28;20234;-82
2021/10/24 00:09:44;;;;;;;1.88;1.75;;;;;;;;;;5053558;27;20221;-83
2021/10/24 00:12:11;;;;;;;2.17;1.48;;;;;;;;;;5053263;27;20648;-82
2021/10/24 00:14:40;;;;;;;1.83;1.60;;;;;;;;;;5052971;28;20205;-83
2021/10/24 00:17:07;;;;;;;3.03;1.40;;;;;;;;;;5052382;28;20225;-82
2021/10/24 00:19:36;;;;;;;1.50;1.40;;;;;;;;;;5052622;28;20221;-82
2021/10/24 00:22:04;;;;;;;1.63;1.50;;;;;;;;;;5053075;28;20248;-82
2021/10/24 00:24:31;;;;;;;2.65;2.17;;;;;;;;;;5052467;28;20208;-82
2021/10/24 00:27:00;;;;;;;3.03;1.80;;;;;;;;;;5053060;28;20213;-83
2021/10/24 00:29:27;;;;;;;2.33;2.10;;;;;;;;;;5052529;28;20226;-82
2021/10/24 00:31:56;;;;;;;1.35;1.25;;;;;;;;;;5052495;28;20186;-82
2021/10/24 00:34:24;;;;;;;1.48;1.38;;;;;;;;;;5053230;28;20197;-82
2021/10/24 00:36:51;;;;;;;1.45;1.35;;;;;;;;;;5052926;28;20572;-81
2021/10/24 00:39:19;;;;;;;2.65;1.65;;;;;;;;;;5052213;28;20715;-82
2021/10/24 00:41:46;;;;;;;1.38;1.35;;;;;;;;;;5052221;28;20230;-81
2021/10/24 00:44:23;;;;;;;1.20;1.10;;;;;;;;;;5052223;28;20197;-82
2021/10/24 00:46:53;;;;;;;1.30;1.20;;;;;;;;;;5052388;28;20186;-83
2021/10/24 00:49:23;;;;;;;1.70;1.40;;;;;;;;;;5052326;28;20707;-82
2021/10/24 00:51:52;;;;;;;1.80;1.50;;;;;;;;;;5052080;28;20531;-82
2021/10/24 00:54:22;;;;;;;1.70;1.55;;;;;;;;;;5052126;28;20189;-81
2021/10/24 00:56:53;;;;;;;1.20;1.10;;;;;;;;;;5051638;28;20968;-81
2021/10/24 00:59:22;;;;;;;2.10;1.90;;;;;;;;;;5051335;28;20226;-83
2021/10/24 01:01:49;;;;;;;2.00;1.80;;;;;;;;;;5051564;28;20233;-82
2021/10/24 01:04:18;;;;;;;1.92;1.70;;;;;;;;;;5051841;28;20578;-82
2021/10/24 01:06:50;;;;;;;1.95;1.85;;;;;;;;;;5051283;28;20212;-81
2021/10/24 01:09:22;;;;;;;2.00;1.80;;;;;;;;;;5052287;28;20656;-82
2021/10/24 01:11:52;;;;;;;2.42;2.17;;;;;;;;;;5051877;28;20668;-84
2021/10/24 01:14:19;;;;;;;2.78;2.20;;;;;;;;;;5052146;28;20190;-82
2021/10/24 01:16:47;;;;;;;3.20;2.33;;;;;;;;;;5051430;28;20210;-82
2021/10/24 01:19:15;;;;;;;3.97;2.60;;;;;;;;;;5051278;28;20313;-82
2021/10/24 01:21:44;;;;;;;2.78;1.90;;;;;;;;;;5051608;28;20362;-81
2021/10/24 01:24:11;;;;;;;2.85;2.65;;;;;;;;;;5051047;28;20580;-81
2021/10/24 01:26:41;;;;;;;3.03;2.72;;;;;;;;;;5051423;28;20202;-82
2021/10/24 01:29:11;;;;;;;3.30;2.50;;;;;;;;;;5052086;28;20229;-82
2021/10/24 01:31:39;;;;;;;4.38;2.90;;;;;;;;;;5051321;28;20628;-82
2021/10/24 01:34:09;;;;;;;3.58;3.28;;;;;;;;;;5051068;28;20210;-81
2021/10/24 01:36:36;;;;;;;3.03;2.75;;;;;;;;;;5051483;28;20193;-82
2021/10/24 01:39:05;;;;;;;2.50;2.20;;;;;;;;;;5051357;28;20224;-82
2021/10/24 01:41:33;;;;;;;2.75;2.47;;;;;;;;;;5051213;28;20229;-82
2021/10/24 01:44:00;;;;;;;2.40;2.20;;;;;;;;;;5051007;28;20186;-82
2021/10/24 01:46:28;;;;;;;2.35;2.15;;;;;;;;;;5051466;28;20201;-82
2021/10/24 01:48:55;;;;;;;2.10;2.00;;;;;;;;;;5051092;28;20224;-82
2021/10/24 01:51:23;;;;;;;1.75;1.40;;;;;;;;;;5051261;28;20186;-82
2021/10/24 01:53:51;;;;;;;2.85;2.13;;;;;;;;;;5051041;28;20636;-81
2021/10/24 01:56:20;;;;;;;1.77;1.55;;;;;;;;;;5051155;28;20178;-81
2021/10/24 01:58:48;;;;;;;1.55;1.45;;;;;;;;;;5050926;28;20316;-81
2021/10/24 02:01:15;;;;;;;2.13;1.92;;;;;;;;;;5051480;28;20196;-82
2021/10/24 02:03:43;;;;;;;1.45;1.35;;;;;;;;;;5051372;28;20228;-82
2021/10/24 02:06:10;;;;;;;1.58;1.42;;;;;;;;;;5051204;28;20636;-81
2021/10/24 02:08:38;;;;;;;1.70;1.60;;;;;;;;;;5049679;28;20233;-82
2021/10/24 02:11:05;;;;;;;1.63;1.52;;;;;;;;;;5050881;28;20579;-82
2021/10/24 02:13:34;;;;;;;3.63;2.10;;;;;;;;;;5050958;28;20186;-82
2021/10/24 02:16:01;;;;;;;1.70;1.60;;;;;;;;;;5030168;28;20202;-82
2021/10/24 02:18:29;;;;;;;1.30;1.30;;;;;;;;;;5029423;28;20230;-81
2021/10/24 02:20:57;;;;;;;1.40;1.30;;;;;;;;;;5031242;28;20198;-82
2021/10/24 02:23:24;;;;;;;1.30;1.30;;;;;;;;;;5030570;28;20238;-81
2021/10/24 02:25:52;;;;;;;1.40;1.30;;;;;;;;;;5030645;28;20212;-82
2021/10/24 02:28:19;;;;;;;2.03;1.83;;;;;;;;;;5030397;28;20233;-81
2021/10/24 02:30:48;;;;;;;1.70;1.58;;;;;;;;;;5030676;28;20633;-81
2021/10/24 02:33:15;;;;;;;1.88;1.48;;;;;;;;;;5031372;28;20206;-81
2021/10/24 02:35:43;;;;;;;1.65;1.55;;;;;;;;;;5030761;28;20206;-81
2021/10/24 02:38:10;;;;;;;1.83;1.73;;;;;;;;;;5030947;28;20573;-81
2021/10/24 02:40:42;;;;;;;1.92;1.83;;;;;;;;;;5030601;28;20198;-81
2021/10/24 02:43:10;;;;;;;2.35;1.90;;;;;;;;;;5030541;28;20727;-81
2021/10/24 02:45:39;;;;;;;2.38;1.70;;;;;;;;;;5030729;28;20186;-81
2021/10/24 02:48:08;;;;;;;2.85;1.42;;;;;;;;;;5030784;28;20198;-81
2021/10/24 02:50:36;;;;;;;1.70;1.60;;;;;;;;;;5030658;28;20186;-82
2021/10/24 02:53:03;;;;;;;4.47;2.20;;;;;;;;;;5030364;28;20213;-82
2021/10/24 02:55:31;;;;;;;2.17;1.98;;;;;;;;;;5030077;28;20210;-81
2021/10/24 02:57:58;;;;;;;2.05;1.83;;;;;;;;;;5029986;28;20669;-81
2021/10/24 03:00:26;;;;;;;2.03;1.80;;;;;;;;;;5030216;28;20202;-81
2021/10/24 03:02:53;;;;;;;2.22;2.13;;;;;;;;;;5029881;28;20206;-81
2021/10/24 03:05:22;;;;;;;2.42;1.80;;;;;;;;;;5030538;28;20673;-81
2021/10/24 03:07:49;;;;;;;1.85;1.65;;;;;;;;;;5029985;28;20202;-81
2021/10/24 03:10:17;;;;;;;1.40;1.30;;;;;;;;;;5030297;28;20226;-82
2021/10/24 03:12:44;;;;;;;1.38;1.27;;;;;;;;;;5030625;28;20179;-82
2021/10/24 03:15:12;;;;;;;1.58;1.48;;;;;;;;;;5029780;28;20206;-81
2021/10/24 03:17:39;;;;;;;1.70;1.60;;;;;;;;;;5030044;28;20197;-82
2021/10/24 03:20:08;;;;;;;1.35;1.23;;;;;;;;;;5030356;28;20730;-82
2021/10/24 03:22:37;;;;;;;1.20;1.20;;;;;;;;;;5032396;28;20239;-82
2021/10/24 03:25:05;;;;;;;1.33;1.23;;;;;;;;;;5033577;28;20194;-82
2021/10/24 03:27:33;;;;;;;2.10;1.90;;;;;;;;;;5033832;28;20217;-82
2021/10/24 03:30:00;;;;;;;1.85;1.75;;;;;;;;;;5033249;28;20703;-82
2021/10/24 03:32:28;;;;;;;1.58;1.52;;;;;;;;;;5033771;28;20209;-82
2021/10/24 03:34:55;;;;;;;2.22;1.73;;;;;;;;;;5033543;28;20277;-82
2021/10/24 03:37:23;;;;;;;2.53;1.70;;;;;;;;;;5033541;28;20199;-81
2021/10/24 03:39:52;;;;;;;1.58;1.48;;;;;;;;;;5033330;28;20223;-81
2021/10/24 03:42:19;;;;;;;1.40;1.30;;;;;;;;;;5033513;28;20213;-83
2021/10/24 03:44:47;;;;;;;1.52;1.42;;;;;;;;;;5033371;28;20700;-82
2021/10/24 03:47:14;;;;;;;1.42;1.33;;;;;;;;;;5033093;28;20218;-82
2021/10/24 03:49:42;;;;;;;1.88;1.77;;;;;;;;;;5032984;28;20230;-82
2021/10/24 03:52:10;;;;;;;1.33;1.10;;;;;;;;;;5033642;28;20187;-82
2021/10/24 03:54:37;;;;;;;1.55;1.45;;;;;;;;;;5033671;28;20186;-81
2021/10/24 03:57:06;;;;;;;1.00;1.00;;;;;;;;;;5033390;28;20202;-81
2021/10/24 03:59:34;;;;;;;1.45;1.25;;;;;;;;;;5032795;28;20223;-81
2021/10/24 04:02:01;;;;;;;1.40;1.30;;;;;;;;;;5033283;28;20191;-81
2021/10/24 04:04:29;;;;;;;1.40;1.30;;;;;;;;;;5032963;28;20297;-82
2021/10/24 04:06:56;;;;;;;1.60;1.38;;;;;;;;;;5033056;28;20193;-81
2021/10/24 04:09:24;;;;;;;1.83;1.73;;;;;;;;;;5032981;28;20738;-81
2021/10/24 04:11:51;;;;;;;1.20;1.10;;;;;;;;;;5033319;28;20197;-81
2021/10/24 04:14:20;;;;;;;1.63;1.52;;;;;;;;;;5033018;28;20214;-82
2021/10/24 04:16:48;;;;;;;1.55;1.45;;;;;;;;;;5033022;28;20203;-82
2021/10/24 04:19:15;;;;;;;1.33;1.23;;;;;;;;;;5032034;28;20222;-82
2021/10/24 04:21:42;;;;;;;1.67;1.58;;;;;;;;;;5032535;28;20182;-82
2021/10/24 04:24:10;;;;;;;1.38;1.35;;;;;;;;;;5032790;28;20207;-82
2021/10/24 04:26:37;;;;;;;1.00;1.00;;;;;;;;;;5032169;28;20636;-81
2021/10/24 04:29:05;;;;;;;1.50;1.40;;;;;;;;;;5032705;28;20226;-81
2021/10/24 04:31:34;;;;;;;1.30;1.20;;;;;;;;;;5032546;28;20195;-82
2021/10/24 04:34:02;;;;;;;1.52;1.42;;;;;;;;;;5032733;28;20213;-82
2021/10/24 04:36:30;;;;;;;2.22;2.03;;;;;;;;;;5032802;28;20203;-82
2021/10/24 04:38:57;;;;;;;1.98;1.77;;;;;;;;;;5032844;27;20232;-81
2021/10/24 04:41:24;;;;;;;1.58;1.48;;;;;;;;;;5031936;28;20213;-82
2021/10/24 04:43:52;;;;;;;1.70;1.60;;;;;;;;;;5032958;28;20237;-82
2021/10/24 04:46:19;;;;;;;2.70;2.50;;;;;;;;;;5032699;28;20179;-82
2021/10/24 04:48:48;;;;;;;1.70;1.60;;;;;;;;;;5032426;28;20225;-82
2021/10/24 04:51:16;;;;;;;1.85;1.75;;;;;;;;;;5032475;28;20194;-81
2021/10/24 04:53:44;;;;;;;1.60;1.50;;;;;;;;;;5032551;28;20206;-82
2021/10/24 04:56:11;;;;;;;1.85;1.75;;;;;;;;;;5032126;28;20206;-81
2021/10/24 04:58:39;;;;;;;2.13;1.92;;;;;;;;;;5032263;28;20218;-81
2021/10/24 05:01:06;;;;;;;1.80;1.70;;;;;;;;;;5032044;28;20203;-81
2021/10/24 05:03:34;;;;;;;2.08;1.92;;;;;;;;;;5032165;28;20211;-82
2021/10/24 05:06:03;;;;;;;2.03;1.92;;;;;;;;;;5031492;28;20210;-81
2021/10/24 05:08:31;;;;;;;2.22;1.80;;;;;;;;;;5032011;28;20230;-81
2021/10/24 05:10:58;;;;;;;1.83;1.73;;;;;;;;;;5031996;28;20206;-81
2021/10/24 05:13:25;;;;;;;1.77;1.67;;;;;;;;;;5031784;28;20204;-81
2021/10/24 05:15:53;;;;;;;2.13;1.80;;;;;;;;;;5032100;28;20203;-82
2021/10/24 05:18:21;;;;;;;1.50;1.40;;;;;;;;;;5032133;28;20233;-82
2021/10/24 05:20:48;;;;;;;2.20;2.00;;;;;;;;;;5032159;28;20217;-81
2021/10/24 05:23:17;;;;;;;1.75;1.65;;;;;;;;;;5031488;28;20238;-82
2021/10/24 05:25:44;;;;;;;1.75;1.65;;;;;;;;;;5031932;28;20233;-81
2021/10/24 05:28:12;;;;;;;2.30;1.65;;;;;;;;;;5031866;28;20206;-81
2021/10/24 05:30:39;;;;;;;2.22;2.13;;;;;;;;;;5031768;28;20206;-82
2021/10/24 05:33:07;;;;;;;2.60;2.40;;;;;;;;;;5031322;28;20210;-81
2021/10/24 05:35:34;;;;;;;1.90;1.80;;;;;;;;;;5031728;28;20207;-82
2021/10/24 05:38:02;;;;;;;2.63;2.42;;;;;;;;;;5031459;28;20285;-82
2021/10/24 05:40:31;;;;;;;1.80;1.70;;;;;;;;;;5032167;28;20198;-82
2021/10/24 05:42:59;;;;;;;2.30;2.10;;;;;;;;;;5031912;28;20199;-82
2021/10/24 05:45:26;;;;;;;1.75;1.65;;;;;;;;;;5030646;28;20222;-82
2021/10/24 05:47:54;;;;;;;1.85;1.75;;;;;;;;;;5032476;28;20199;-82
2021/10/24 05:50:23;;;;;;;3.63;3.33;;;;;;;;;;5051629;28;20182;-82
2021/10/24 05:52:50;;;;;;;4.20;3.80;;;;;;;;;;5051620;28;20787;-82
2021/10/24 05:55:19;;;;;;;3.30;3.00;;;;;;;;;;5052009;28;20205;-83
2021/10/24 05:57:47;;;;;;;2.67;2.47;;;;;;;;;;5051335;28;20258;-82
2021/10/24 06:00:15;;;;;;;2.47;2.05;;;;;;;;;;5051776;28;20236;-82
2021/10/24 06:02:43;;;;;;;2.28;2.08;;;;;;;;;;5051309;28;20648;-83
2021/10/24 06:05:10;;;;;;;2.00;1.90;;;;;;;;;;5051504;28;20228;-83
2021/10/24 06:07:38;;;;;;;1.80;1.70;;;;;;;;;;5051016;28;20208;-82
2021/10/24 06:10:12;;;;;;;2.22;2.13;;;;;;;;;;5052154;28;20235;-82
2021/10/24 06:12:45;;;;;;;2.15;2.05;;;;;;;;;;5051215;28;20189;-83
2021/10/24 06:15:16;;;;;;;1.98;1.80;;;;;;;;;;5051712;28;20182;-82
2021/10/24 06:17:44;;;;;;;1.75;1.65;;;;;;;;;;5039888;28;20564;-83
2021/10/24 06:20:13;;;;;;;1.63;1.52;;;;;;;;;;5031129;28;20219;-83
2021/10/24 06:22:41;;;;;;;1.70;1.60;;;;;;;;;;5031466;28;20237;-83
2021/10/24 06:25:12;;;;;;;1.60;1.50;;;;;;;;;;5050206;28;20676;-82
2021/10/24 06:27:42;;;;;;;1.55;1.45;;;;;;;;;;5051503;28;20186;-83
2021/10/24 06:30:12;;;;;;;1.67;1.58;;;;;;;;;;5051289;27;20236;-83
2021/10/24 06:32:42;;;;;;;1.58;1.50;;;;;;;;;;5042321;28;20571;-82
2021/10/24 06:35:10;;;;;;;1.92;1.83;;;;;;;;;;5050126;28;20190;-82
2021/10/24 06:37:42;;;;;;;1.55;1.45;;;;;;;;;;5046508;28;20201;-82
2021/10/24 06:40:11;;;;;;;2.15;2.05;;;;;;;;;;5031256;28;20718;-83
2021/10/24 06:42:38;;;;;;;2.17;2.08;;;;;;;;;;5031548;28;20194;-83
2021/10/24 06:45:08;;;;;;;1.88;1.77;;;;;;;;;;5031183;28;20218;-83
2021/10/24 06:47:36;;;;;;;1.75;1.65;;;;;;;;;;5031331;28;20191;-82
2021/10/24 06:50:08;;;;;;;1.80;1.70;;;;;;;;;;5031574;28;20608;-83
2021/10/24 06:52:35;;;;;;;1.83;1.70;;;;;;;;;;5031706;28;20190;-81
2021/10/24 06:55:03;;;;;;;2.42;2.22;;;;;;;;;;5032044;28;20647;-82
2021/10/24 06:57:33;;;;;;;4.55;3.40;;;;;;;;;;5044238;28;20205;-85
2021/10/24 07:00:01;;;;;;;2.70;2.50;;;;;;;;;;5040837;27;20226;-84
2021/10/24 07:02:30;;;;;;;2.90;2.60;;;;;;;;;;5037696;28;20233;-84
2021/10/24 07:04:58;;;;;;;2.45;2.28;;;;;;;;;;5036189;28;20217;-82
2021/10/24 07:07:27;;;;;;;2.50;2.30;;;;;;;;;;5034117;28;20202;-80
2021/10/24 07:09:54;;;;;;;2.47;1.92;;;;;;;;;;5033950;28;20222;-83
2021/10/24 07:12:22;;;;;;;1.70;1.60;;;;;;;;;;5034841;28;20199;-82
2021/10/24 07:14:49;;;;;;;1.63;1.52;;;;;;;;;;5035262;28;20209;-82
2021/10/24 07:17:23;;;;;;;1.48;1.45;;;;;;;;;;5034450;28;20202;-84
2021/10/24 07:19:52;;;;;;;1.52;1.42;;;;;;;;;;5034255;28;20227;-83
2021/10/24 07:22:20;;;;;;;1.88;1.77;;;;;;;;;;5045524;28;20224;-84
2021/10/24 07:24:50;;;;;;;2.08;1.98;;;;;;;;;;5053331;28;20201;-82
2021/10/24 07:27:18;;;;;;;1.50;1.40;;;;;;;;;;5049565;28;20193;-83
2021/10/24 07:29:46;;;;;;;1.83;1.73;;;;;;;;;;5035012;28;20222;-83
2021/10/24 07:32:13;;;;;;;1.60;1.50;;;;;;;;;;5081388;27;20193;-84
2021/10/24 07:34:41;;;;;;;1.40;1.30;;;;;;;;;;5136884;27;20190;-82
2021/10/24 07:37:08;;;;;;;1.88;1.77;;;;;;;;;;5039984;28;20206;-81
2021/10/24 07:39:37;;;;;;;2.00;1.90;;;;;;;;;;5038846;28;20233;-82
2021/10/24 07:42:07;;;;;;;2.78;2.55;;;;;;;;;;5053081;28;20208;-81
2021/10/24 07:44:34;;;;;;;2.15;2.05;;;;;;;;;;5054626;28;20186;-81
2021/10/24 07:47:04;;;;;;;2.15;1.95;;;;;;;;;;5054750;28;20710;-82
2021/10/24 07:49:32;;;;;;;2.10;2.00;;;;;;;;;;5054467;28;20229;-81
2021/10/24 07:52:01;;;;;;;2.10;2.00;;;;;;;;;;5054372;28;20202;-82
2021/10/24 07:54:29;;;;;;;2.30;2.20;;;;;;;;;;5054619;28;20193;-81
2021/10/24 07:56:58;;;;;;;1.92;1.83;;;;;;;;;;5054103;28;20187;-83
2021/10/24 07:59:28;;;;;;;2.00;1.90;;;;;;;;;;5053574;28;20222;-80
2021/10/24 08:01:57;;;;;;;2.60;2.40;;;;;;;;;;5045675;28;20193;-82
2021/10/24 08:04:25;;;;;;;2.42;2.22;;;;;;;;;;5034395;28;20529;-81
2021/10/24 08:06:52;;;;;;;3.05;2.85;;;;;;;;;;5044150;28;20224;-82
2021/10/24 08:09:21;;;;;;;2.85;2.58;;;;;;;;;;5053441;28;20228;-81
2021/10/24 08:11:50;;;;;;;2.83;2.63;;;;;;;;;;5040504;28;20191;-82
2021/10/24 08:14:17;;;;;;;2.35;2.22;;;;;;;;;;5053835;28;20197;-81
2021/10/24 08:16:46;;;;;;;2.10;2.00;;;;;;;;;;5050505;28;20194;-82
2021/10/24 08:19:16;;;;;;;1.98;1.88;;;;;;;;;;5047949;28;20218;-82
2021/10/24 08:21:44;;;;;;;2.88;2.67;;;;;;;;;;5052650;28;20186;-81
2021/10/24 08:24:11;;;;;;;2.35;2.10;;;;;;;;;;5052227;28;20189;-81
2021/10/24 08:26:42;;;;;;;2.67;2.47;;;;;;;;;;5052437;28;20213;-82
2021/10/24 08:29:10;;;;;;;2.60;2.42;;;;;;;;;;5052234;28;20574;-82
2021/10/24 08:31:43;;;;;;;2.70;2.50;;;;;;;;;;5034486;28;20190;-82
2021/10/24 08:34:13;;;;;;;2.70;2.50;;;;;;;;;;5052425;28;20711;-84
2021/10/24 08:36:42;;;;;;;3.03;2.72;;;;;;;;;;5052885;28;20178;-82
2021/10/24 08:39:10;;;;;;;3.50;3.20;;;;;;;;;;5053284;28;20257;-82
2021/10/24 08:41:40;;;;;;;2.55;2.45;;;;;;;;;;5032915;28;20565;-82
2021/10/24 08:44:09;;;;;;;2.42;2.33;;;;;;;;;;5049203;28;20678;-82
2021/10/24 08:46:38;;;;;;;2.80;2.60;;;;;;;;;;5051955;28;20221;-82
2021/10/24 08:49:05;;;;;;;2.78;2.58;;;;;;;;;;5052138;28;20692;-82
2021/10/24 08:51:34;;;;;;;3.47;3.17;;;;;;;;;;5048175;28;20190;-82
2021/10/24 08:54:02;;;;;;;3.25;3.03;;;;;;;;;;5051996;28;20193;-81
2021/10/24 08:56:32;;;;;;;3.03;2.83;;;;;;;;;;5052249;28;20189;-84
2021/10/24 08:59:01;;;;;;;4.32;3.92;;;;;;;;;;5051908;27;20578;-83
2021/10/24 09:01:29;;;;;;;4.45;4.05;;;;;;;;;;5053026;28;20206;-83
2021/10/24 09:04:07;;;;;;;4.57;4.22;;;;;;;;;;5049734;28;20201;-83
2021/10/24 09:06:55;;;;;;;4.97;4.22;;;;;;;;;;5053206;27;20614;-83
2021/10/24 09:09:26;;;;;;;3.80;3.42;;;;;;;;;;5053862;28;20253;-83
2021/10/24 09:12:03;;;;;;;3.47;3.17;;;;;;;;;;5053245;28;20221;-83
2021/10/24 09:14:48;;;;;;;3.55;3.25;;;;;;;;;;5053739;28;20193;-82
2021/10/24 09:17:21;;;;;;;3.88;3.58;;;;;;;;;;5052402;28;20209;-84
2021/10/24 09:19:55;;;;;;;3.35;3.05;;;;;;;;;;5052244;27;20595;-85
2021/10/24 09:22:27;;;;;;;3.75;3.45;;;;;;;;;;5050052;27;20271;-82
2021/10/24 09:25:14;;;;;;;4.07;3.75;;;;;;;;;;5052167;27;20289;-85
2021/10/24 09:27:48;;;;;;;3.85;3.55;;;;;;;;;;5051577;28;20710;-84
2021/10/24 09:30:21;;;;;;;4.15;3.85;;;;;;;;;;5052402;28;20222;-83
2021/10/24 09:33:00;;;;;;;5.28;4.78;;;;;;;;;;5052652;28;20202;-83
2021/10/24 09:35:34;;;;;;;4.45;3.83;;;;;;;;;;5052541;28;20196;-83
2021/10/24 09:38:07;;;;;;;3.78;3.45;;;;;;;;;;5052581;28;20189;-86
2021/10/24 09:40:41;;;;;;;5.90;3.63;;;;;;;;;;5051315;28;20181;-88
2021/10/24 09:43:13;;;;;;;4.03;3.67;;;;;;;;;;5051492;28;20262;-82
2021/10/24 09:45:42;;;;;;;4.25;3.60;;;;;;;;;;5052314;28;20238;-82
2021/10/24 09:48:16;;;;;;;4.35;3.33;;;;;;;;;;5051272;28;20221;-82
2021/10/24 09:50:51;;;;;;;4.13;3.20;;;;;;;;;;5052228;28;20624;-82
2021/10/24 09:53:26;;;;;;;3.58;3.00;;;;;;;;;;5052177;28;20181;-83
2021/10/24 09:56:09;;;;;;;3.85;3.55;;;;;;;;;;5051846;28;20194;-82
2021/10/24 09:58:38;;;;;;;3.10;2.83;;;;;;;;;;5050928;28;20266;-81
2021/10/24 10:01:08;;;;;;;3.67;3.10;;;;;;;;;;5050998;27;20190;-85
2021/10/24 10:03:41;;;;;;;5.75;3.97;;;;;;;;;;5051170;28;20269;-84
2021/10/24 10:06:11;;;;;;;5.95;3.22;;;;;;;;;;5051580;28;20190;-86
2021/10/24 10:08:43;;;;;;;6.40;4.30;;;;;;;;;;5052429;28;20229;-84
2021/10/24 10:11:25;;;;;;;2.75;2.55;;;;;;;;;;5051751;28;20197;-86
2021/10/24 10:13:59;;;;;;;3.97;2.83;;;;;;;;;;5051436;28;20178;-85
2021/10/24 10:16:36;;;;;;;2.60;2.40;;;;;;;;;;5052083;28;20527;-84
2021/10/24 10:19:11;;;;;;;4.50;2.70;;;;;;;;;;5052156;28;20758;-85
2021/10/24 10:21:41;;;;;;;2.85;2.53;;;;;;;;;;5051179;28;20189;-84
2021/10/24 10:24:46;;;;;;;2.97;2.67;;;;;;;;;;5051727;28;20655;-85
2021/10/24 10:27:45;;;;;;;2.92;2.35;;;;;;;;;;5051012;28;20230;-87
2021/10/24 10:30:17;;;;;;;5.20;2.60;;;;;;;;;;4989313;28;20235;-86
2021/10/24 10:32:53;;;;;;;2.95;2.55;;;;;;;;;;4990049;28;20581;-85
2021/10/24 10:35:28;;;;;;;2.65;2.28;;;;;;;;;;4988383;28;20199;-87
2021/10/24 10:38:06;;;;;;;5.40;2.58;;;;;;;;;;4988942;28;20183;-87
2021/10/24 10:40:39;;;;;;;3.17;2.03;;;;;;;;;;5033175;28;20683;-84
2021/10/24 10:43:18;;;;;;;3.55;2.17;;;;;;;;;;5050001;27;20201;-86
2021/10/24 10:46:03;;;;;;;2.10;1.88;;;;;;;;;;5050771;28;20197;-86
2021/10/24 10:48:37;;;;;;;2.97;2.38;;;;;;;;;;5050016;28;20229;-85
2021/10/24 10:51:24;;;;;;;2.53;2.33;;;;;;;;;;5050129;27;20198;-87
2021/10/24 10:54:03;;;;;;;3.55;1.92;;;;;;;;;;5050393;28;20196;-87
2021/10/24 10:56:54;;;;;;;2.60;2.13;;;;;;;;;;5050023;27;20221;-87
2021/10/24 10:59:36;;;;;;;3.63;2.20;;;;;;;;;;5049733;27;20274;-87
2021/10/24 11:02:28;;;;;;;1.90;1.63;;;;;;;;;;5050188;28;20188;-86
2021/10/24 11:05:00;;;;;;;5.32;2.00;;;;;;;;;;5050082;28;20204;-87
2021/10/24 11:07:44;;;;;;;2.40;1.92;;;;;;;;;;5049872;28;20228;-87
2021/10/24 11:10:45;;;;;;;3.92;2.17;;;;;;;;;;5049778;28;20222;-88
2021/10/24 11:13:39;;;;;;;1.88;1.60;;;;;;;;;;5050280;28;20641;-87
2021/10/24 11:16:41;;;;;;;2.67;1.90;;;;;;;;;;5035231;27;20246;-87
2021/10/24 11:19:49;;;;;;;2.10;1.90;;;;;;;;;;5044561;27;20605;-86
2021/10/24 11:22:19;;;;;;;1.80;1.52;;;;;;;;;;5049820;27;20599;-87
2021/10/24 11:25:11;;;;;;;2.28;1.70;;;;;;;;;;5049828;27;20552;-87
2021/10/24 11:27:45;;;;;;;2.00;1.70;;;;;;;;;;5048777;27;20695;-85
2021/10/24 11:30:16;;;;;;;1.70;1.52;;;;;;;;;;5049287;28;20221;-85
2021/10/24 11:33:10;;;;;;;2.95;2.13;;;;;;;;;;5049508;28;20194;-87
2021/10/24 11:35:45;;;;;;;1.85;1.73;;;;;;;;;;5049312;27;20198;-88
2021/10/24 11:39:02;;;;;;;2.10;1.85;;;;;;;;;;5049117;28;20556;-87
2021/10/24 11:41:46;;;;;;;2.10;1.90;;;;;;;;;;5049941;28;20675;-86
2021/10/24 11:44:27;;;;;;;3.85;1.80;;;;;;;;;;5053116;28;20727;-86
2021/10/24 11:47:23;;;;;;;2.60;1.80;;;;;;;;;;5053290;28;20205;-85
2021/10/24 11:50:53;;;;;;;3.78;2.72;;;;;;;;;;5053133;28;20228;-86
2021/10/24 11:53:42;;;;;;;2.15;1.75;;;;;;;;;;5052690;28;20547;-87
2021/10/24 11:56:35;;;;;;;2.75;1.88;;;;;;;;;;5052406;28;20563;-89
2021/10/24 11:59:25;;;;;;;2.53;1.77;;;;;;;;;;5052975;27;20555;-87
2021/10/24 12:02:12;;;;;;;3.40;2.00;;;;;;;;;;5052563;27;20190;-88
2021/10/24 12:04:59;;;;;;;3.60;2.50;;;;;;;;;;5053197;28;20182;-87
2021/10/24 12:07:28;;;;;;;2.17;1.70;;;;;;;;;;5052675;28;20274;-86
2021/10/24 12:10:05;;;;;;;3.25;1.77;;;;;;;;;;5052093;28;20222;-88
2021/10/24 12:12:57;;;;;;;2.55;1.73;;;;;;;;;;5052600;28;20180;-87
2021/10/24 12:16:04;;;;;;;1.80;1.70;;;;;;;;;;5052520;27;20201;-87
2021/10/24 12:18:48;;;;;;;2.25;2.05;;;;;;;;;;5052395;28;20411;-89
2021/10/24 12:21:26;;;;;;;2.20;2.00;;;;;;;;;;5052633;28;20182;-85
2021/10/24 12:24:19;;;;;;;1.85;1.70;;;;;;;;;;5052307;28;20233;-86
2021/10/24 12:26:49;;;;;;;3.05;1.77;;;;;;;;;;5052803;28;20186;-87
2021/10/24 12:29:21;;;;;;;2.35;1.92;;;;;;;;;;5051903;28;20233;-86
2021/10/24 12:32:08;;;;;;;1.90;1.80;;;;;;;;;;5054225;27;20205;-86
2021/10/24 12:35:05;;;;;;;3.47;2.00;;;;;;;;;;5053132;28;20197;-85
2021/10/24 12:37:40;;;;;;;3.20;1.88;;;;;;;;;;5054114;28;20182;-86
2021/10/24 12:40:24;;;;;;;3.25;2.10;;;;;;;;;;5053916;28;20229;-85
2021/10/24 12:43:10;;;;;;;1.85;1.75;;;;;;;;;;5054629;28;20217;-87
2021/10/24 12:45:55;;;;;;;2.33;2.03;;;;;;;;;;5053713;27;20198;-86
2021/10/24 12:48:38;;;;;;;1.98;1.50;;;;;;;;;;5052838;28;20236;-89
2021/10/24 12:51:25;;;;;;;2.75;2.08;;;;;;;;;;5052469;28;20667;-87
2021/10/24 12:53:56;;;;;;;2.25;1.70;;;;;;;;;;5050443;27;20213;-85
2021/10/24 12:56:26;;;;;;;4.28;1.98;;;;;;;;;;5053076;28;20178;-86
2021/10/24 12:58:56;;;;;;;2.22;2.00;;;;;;;;;;5053425;28;20783;-87
2021/10/24 13:01:27;;;;;;;2.05;1.85;;;;;;;;;;5053587;28;20225;-86
2021/10/24 13:04:05;;;;;;;1.73;1.63;;;;;;;;;;5054954;28;20186;-85
2021/10/24 13:06:35;;;;;;;1.70;1.60;;;;;;;;;;5053603;28;20667;-85
2021/10/24 13:09:11;;;;;;;1.50;1.40;;;;;;;;;;5052745;28;20233;-86
2021/10/24 13:11:43;;;;;;;2.80;2.22;;;;;;;;;;5054046;28;20193;-85
2021/10/24 13:14:46;;;;;;;1.80;1.70;;;;;;;;;;5053303;28;20610;-86
2021/10/24 13:17:15;;;;;;;2.20;2.00;;;;;;;;;;5053645;27;20202;-85
2021/10/24 13:20:32;;;;;;;1.98;1.60;;;;;;;;;;5052982;28;20222;-86
2021/10/24 13:23:04;;;;;;;1.70;1.60;;;;;;;;;;5053048;27;20225;-84
2021/10/24 13:25:35;;;;;;;2.58;1.92;;;;;;;;;;5054066;28;20254;-86
2021/10/24 13:28:03;;;;;;;2.53;1.90;;;;;;;;;;5054552;28;20281;-87
2021/10/24 13:30:32;;;;;;;2.25;2.05;;;;;;;;;;5053420;28;20182;-85
2021/10/24 13:33:01;;;;;;;2.08;1.88;;;;;;;;;;5053180;28;20186;-85
2021/10/24 13:35:36;;;;;;;2.95;2.17;;;;;;;;;;5054426;28;20242;-85
2021/10/24 13:38:11;;;;;;;2.28;2.08;;;;;;;;;;5053403;28;20208;-85
2021/10/24 13:40:53;;;;;;;1.92;1.75;;;;;;;;;;5054196;28;20204;-86
2021/10/24 13:43:22;;;;;;;1.70;1.60;;;;;;;;;;5053017;28;20182;-85
2021/10/24 13:45:50;;;;;;;1.50;1.40;;;;;;;;;;5053787;28;20186;-84
2021/10/24 13:48:24;;;;;;;2.00;1.50;;;;;;;;;;5052823;28;20619;-85
2021/10/24 13:51:30;;;;;;;1.65;1.55;;;;;;;;;;5052910;28;20268;-86
2021/10/24 13:53:58;;;;;;;2.45;1.80;;;;;;;;;;5052511;28;20201;-84
2021/10/24 13:56:27;;;;;;;3.35;1.85;;;;;;;;;;5052075;28;20197;-85
2021/10/24 13:58:56;;;;;;;1.73;1.60;;;;;;;;;;5051900;28;20281;-85
2021/10/24 14:01:27;;;;;;;1.42;1.33;;;;;;;;;;5052364;28;20198;-85
2021/10/24 14:03:57;;;;;;;2.03;1.52;;;;;;;;;;5052278;28;20205;-85
2021/10/24 14:06:26;;;;;;;2.17;1.65;;;;;;;;;;5051478;27;20212;-83
2021/10/24 14:08:56;;;;;;;5.72;1.73;;;;;;;;;;5052952;28;20229;-85
2021/10/24 14:11:28;;;;;;;2.10;1.90;;;;;;;;;;5052427;28;20542;-81
2021/10/24 14:14:14;;;;;;;2.22;1.70;;;;;;;;;;5051816;28;20198;-84
2021/10/24 14:16:43;;;;;;;1.50;1.35;;;;;;;;;;5051726;28;20668;-85
2021/10/24 14:19:18;;;;;;;1.67;1.50;;;;;;;;;;5052232;28;20222;-83
2021/10/24 14:21:46;;;;;;;3.15;1.70;;;;;;;;;;5050733;28;20196;-86
2021/10/24 14:24:18;;;;;;;6.75;1.85;;;;;;;;;;5051951;28;20246;-87
2021/10/24 14:26:48;;;;;;;3.15;2.00;;;;;;;;;;5052549;27;20215;-86
2021/10/24 14:29:28;;;;;;;2.78;1.40;;;;;;;;;;5051793;28;20232;-85
2021/10/24 14:31:57;;;;;;;1.55;1.45;;;;;;;;;;5051930;28;20209;-85
2021/10/24 14:34:32;;;;;;;2.53;1.60;;;;;;;;;;5052901;28;20194;-82
2021/10/24 14:37:01;;;;;;;2.47;1.90;;;;;;;;;;5052405;28;20272;-86
2021/10/24 14:39:28;;;;;;;1.67;1.50;;;;;;;;;;5052783;28;20236;-85
2021/10/24 14:41:57;;;;;;;1.60;1.50;;;;;;;;;;5052079;28;20206;-86
2021/10/24 14:44:27;;;;;;;1.67;1.58;;;;;;;;;;5053134;28;20194;-85
2021/10/24 14:47:02;;;;;;;1.73;1.40;;;;;;;;;;5051727;28;20182;-85
2021/10/24 14:49:36;;;;;;;2.05;1.52;;;;;;;;;;5051336;28;20229;-84
2021/10/24 14:52:22;;;;;;;1.50;1.40;;;;;;;;;;5051764;28;20192;-85
2021/10/24 14:55:00;;;;;;;1.45;1.30;;;;;;;;;;5052704;27;20202;-86
2021/10/24 14:57:51;;;;;;;1.65;1.55;;;;;;;;;;5051928;27;20219;-86
2021/10/24 15:00:26;;;;;;;1.42;1.20;;;;;;;;;;5053932;28;20795;-85
2021/10/24 15:03:21;;;;;;;1.30;1.20;;;;;;;;;;5051401;27;20204;-85
2021/10/24 15:05:55;;;;;;;1.30;1.20;;;;;;;;;;5051441;28;20355;-87
2021/10/24 15:08:43;;;;;;;1.13;1.10;;;;;;;;;;5051316;28;20221;-86
2021/10/24 15:11:53;;;;;;;1.23;1.13;;;;;;;;;;5051788;28;20559;-86
2021/10/24 15:14:39;;;;;;;1.55;1.45;;;;;;;;;;5051006;28;20190;-84
2021/10/24 15:17:49;;;;;;;1.52;1.23;;;;;;;;;;5052843;28;20194;-85